< < Back
Terminal Aerodrome Forecast


Current Version              Previous Versions:   1  2  3  4  5  6  7  8  9  

Terminal Aerodrome Forecast

427
FTUS42 KJAX 311721
TAFSSI
TAF
KSSI 311721Z 3118/0118 10010KT P6SM VCTS SCT050CB SCT120
     FM010200 17005KT P6SM FEW050 SCT100
     FM010700 24004KT P6SM FEW050 SCT100
     FM011400 28007KT P6SM SCT030=



Latest METAR

657
SAUS70 KWBC 312100 RRF
MTRSSI
METAR KSSI 312053Z AUTO 04006KT 10SM TS CLR 27/23 A2991 RMK AO2 LTG DSNT
N AND NE AND SW TSB43 SLP129 T02670228 56002


USA.gov is the U.S. government's official web portal to all federal, state and local government web resources and services.